Time;durP1;ratioP1;P1;durP2;ratioP2;P2;SDS_P1;SDS_P2;PMS_P1;PMS_P2;Temp;Humidity;BMP_temperature;BMP_pressure;BME280_temperature;BME280_humidity;BME280_pressure;Samples;Min_cycle;Max_cycle;Signal;HPM_P1;HPM_P2
2022/12/26 00:01:54;;;;;;;64.17;33.95;;;;;;;5.78;92.53;101441.20;1747588;80;20931;-85
2022/12/26 00:04:21;;;;;;;61.88;32.58;;;;;;;5.74;92.24;101448.68;1751281;80;20943;-85
2022/12/26 00:06:47;;;;;;;54.95;32.58;;;;;;;5.72;92.39;101443.96;1705538;83;22093;-85
2022/12/26 00:09:14;;;;;;;62.50;33.10;;;;;;;5.72;92.58;101447.02;1717892;82;21006;-85
2022/12/26 00:11:41;;;;;;;66.17;34.92;;;;;;;5.71;92.50;101449.19;1716549;82;21452;-83
2022/12/26 00:14:12;;;;;;;63.90;33.08;;;;;;;5.70;92.40;101447.50;1719868;82;21528;-85
2022/12/26 00:16:40;;;;;;;62.25;32.75;;;;;;;5.68;92.08;101450.59;1662617;85;21036;-85
2022/12/26 00:19:07;;;;;;;64.12;33.00;;;;;;;5.64;91.81;101458.91;1696214;82;21233;-84
2022/12/26 00:21:33;;;;;;;66.15;33.78;;;;;;;5.58;91.87;101461.23;1694398;82;21000;-84
2022/12/26 00:24:00;;;;;;;58.83;31.70;;;;;;;5.56;92.14;101463.02;1700778;82;21234;-85
2022/12/26 00:26:29;;;;;;;54.95;31.45;;;;;;;5.57;92.44;101463.87;1687849;82;21364;-80
2022/12/26 00:28:56;;;;;;;100.75;56.60;;;;;;;5.59;92.25;101466.84;1707413;82;21510;-84
2022/12/26 00:31:28;;;;;;;65.25;34.50;;;;;;;5.59;92.51;101472.04;1698221;82;21137;-86
2022/12/26 00:33:55;;;;;;;73.97;36.65;;;;;;;5.58;92.44;101475.55;1697707;82;20951;-85
2022/12/26 00:36:26;;;;;;;68.85;35.73;;;;;;;5.59;92.42;101475.09;1701437;82;20969;-85
2022/12/26 00:38:54;;;;;;;70.20;35.15;;;;;;;5.57;92.04;101472.98;1704120;82;21020;-85
2022/12/26 00:41:20;;;;;;;79.42;37.95;;;;;;;5.51;92.01;101480.48;1698839;82;21540;-84
2022/12/26 00:43:47;;;;;;;70.57;37.50;;;;;;;5.46;92.12;101477.59;1747203;80;21420;-85
2022/12/26 00:46:14;;;;;;;70.92;36.38;;;;;;;5.45;92.42;101484.55;1744295;80;20998;-85
2022/12/26 00:48:41;;;;;;;80.57;36.83;;;;;;;5.46;92.58;101484.95;1748452;80;20960;-84
2022/12/26 00:51:08;;;;;;;67.58;34.20;;;;;;;5.48;92.61;101481.86;1745960;80;21522;-86
2022/12/26 00:53:34;;;;;;;79.27;35.98;;;;;;;5.52;92.76;101485.26;1717838;82;21011;-86
2022/12/26 00:56:01;;;;;;;76.82;37.03;;;;;;;5.53;92.69;101481.30;1716756;81;21599;-86
2022/12/26 00:58:28;;;;;;;73.87;36.68;;;;;;;5.52;92.57;101489.16;1720992;81;21112;-82
2022/12/26 01:01:05;;;;;;;74.10;36.93;;;;;;;5.52;92.56;101490.01;1719206;82;20971;-83
2022/12/26 01:03:32;;;;;;;70.28;35.73;;;;;;;5.53;92.37;101490.40;1715275;82;20970;-83
2022/12/26 01:06:00;;;;;;;73.33;36.17;;;;;;;5.54;92.23;101488.22;1700542;82;21519;-85
2022/12/26 01:08:27;;;;;;;72.85;36.30;;;;;;;5.54;92.00;101492.13;1683977;83;21434;-84
2022/12/26 01:10:54;;;;;;;69.67;36.17;;;;;;;5.54;92.29;101483.47;1712631;82;21045;-84
2022/12/26 01:13:21;;;;;;;65.25;32.08;;;;;;;5.56;92.10;101479.94;1693183;84;21468;-84
2022/12/26 01:15:50;;;;;;;74.47;35.70;;;;;;;5.56;92.30;101479.94;1693050;83;21079;-84
2022/12/26 01:18:17;;;;;;;66.77;33.53;;;;;;;5.53;92.00;101481.75;1688096;83;21004;-84
2022/12/26 01:20:44;;;;;;;63.50;33.78;;;;;;;5.49;91.97;101482.30;1704832;83;21208;-84
2022/12/26 01:23:11;;;;;;;63.70;34.35;;;;;;;5.46;92.04;101486.25;1700888;82;20971;-84
2022/12/26 01:25:39;;;;;;;65.67;32.45;;;;;;;5.43;92.10;101482.89;1706156;83;20921;-84
2022/12/26 01:28:05;;;;;;;60.15;30.37;;;;;;;5.43;92.32;101478.98;1750007;81;20991;-84
2022/12/26 01:30:32;;;;;;;60.03;32.20;;;;;;;5.47;92.41;101487.09;1715623;82;21052;-84
2022/12/26 01:33:00;;;;;;;56.90;31.15;;;;;;;5.48;92.43;101483.62;1704759;83;21529;-85
2022/12/26 01:35:27;;;;;;;58.25;32.95;;;;;;;5.48;92.44;101487.07;1694605;82;21447;-83
2022/12/26 01:37:54;;;;;;;62.53;34.60;;;;;;;5.47;92.47;101482.77;1722222;80;21089;-82
2022/12/26 01:40:21;;;;;;;62.13;32.98;;;;;;;5.50;92.40;101485.73;1751891;80;21121;-84
2022/12/26 01:42:48;;;;;;;63.20;33.92;;;;;;;5.50;92.46;101483.14;1741727;80;21017;-85
2022/12/26 01:45:30;;;;;;;60.40;31.97;;;;;;;5.52;92.14;101481.36;1738493;81;20994;-84
2022/12/26 01:48:07;;;;;;;56.37;30.65;;;;;;;5.50;92.17;101481.84;1746365;81;20971;-84
2022/12/26 01:50:59;;;;;;;64.12;31.37;;;;;;;5.51;91.98;101484.83;1738239;80;20931;-85
2022/12/26 01:53:36;;;;;;;55.03;32.03;;;;;;;5.46;91.78;101488.00;1751339;81;20887;-84
2022/12/26 01:56:27;;;;;;;58.68;32.73;;;;;;;5.42;92.09;101491.11;1740959;80;21018;-84
2022/12/26 01:58:58;;;;;;;59.03;31.35;;;;;;;5.43;92.49;101486.79;1741324;80;21524;-84
2022/12/26 02:01:26;;;;;;;66.35;32.73;;;;;;;5.48;92.36;101494.02;1711425;83;20928;-85
2022/12/26 02:06:40;;;;;;;72.10;33.63;;;;;;;5.48;92.44;101492.73;1706740;82;20969;-83
2022/12/26 02:09:07;;;;;;;62.38;33.78;;;;;;;5.48;92.15;101490.97;1708595;82;20923;-84
2022/12/26 02:11:42;;;;;;;60.98;32.42;;;;;;;5.45;91.65;101491.06;1694052;82;21214;-83
2022/12/26 02:14:08;;;;;;;67.55;32.08;;;;;;;5.38;91.30;101486.45;1698113;82;20945;-84
2022/12/26 02:16:36;;;;;;;55.40;29.65;;;;;;;5.29;91.52;101480.59;1711604;82;21132;-84
2022/12/26 02:19:03;;;;;;;60.50;31.55;;;;;;;5.26;91.98;101483.29;1694784;84;21069;-84
2022/12/26 02:21:43;;;;;;;64.82;32.55;;;;;;;5.22;91.80;101488.14;1703312;82;20991;-84
2022/12/26 02:24:47;;;;;;;62.70;32.10;;;;;;;5.20;92.69;101492.07;1717137;82;22496;-84
2022/12/26 02:27:35;;;;;;;62.35;30.15;;;;;;;5.24;92.84;101480.71;1714674;82;20852;-85
2022/12/26 02:30:34;;;;;;;66.20;33.23;;;;;;;5.24;92.43;101487.22;1744540;80;20928;-84
2022/12/26 02:33:29;;;;;;;71.42;36.35;;;;;;;5.17;92.38;101481.30;1754223;80;20981;-84
2022/12/26 02:36:23;;;;;;;69.72;35.68;;;;;;;5.19;92.88;101482.58;1744626;81;20986;-83
2022/12/26 02:39:00;;;;;;;66.90;34.03;;;;;;;5.23;93.01;101488.13;1724116;80;21836;-85
2022/12/26 02:41:47;;;;;;;72.95;36.68;;;;;;;5.28;93.07;101491.45;1735854;81;20880;-85
2022/12/26 02:48:07;;;;;;;67.22;36.83;;;;;;;5.36;93.26;101492.59;1750892;80;21049;-85
2022/12/26 03:14:22;;;;;;;72.32;35.88;;;;;;;5.08;92.45;101498.88;1714317;82;26400;-82
2022/12/26 03:19:56;;;;;;;72.32;35.45;;;;;;;4.93;92.73;101506.56;1713014;82;20983;-83
2022/12/26 03:22:29;;;;;;;80.47;37.35;;;;;;;4.86;92.91;101503.25;1747981;80;21152;-84
2022/12/26 03:26:38;;;;;;;82.27;37.98;;;;;;;4.87;93.52;101501.49;1713070;83;20923;-84
2022/12/26 03:27:03;;;;;;;75.80;37.73;;;;;;;4.93;94.07;101508.71;1712067;83;20883;-84
2022/12/26 03:32:15;;;;;;;76.50;37.10;;;;;;;5.06;94.48;101513.20;1665604;82;20984;-83
2022/12/26 03:34:43;;;;;;;71.05;35.40;;;;;;;5.13;94.63;101515.22;1696379;82;21105;-83
2022/12/26 03:37:24;;;;;;;80.92;36.60;;;;;;;5.21;94.65;101520.26;1707061;80;21069;-85
2022/12/26 04:44:03;;;;;;;;;;;;;;;5.32;93.16;101547.71;1715074;82;21439;-84
2022/12/26 04:46:31;;;;;;;65.25;30.10;;;;;;;5.35;92.92;101548.93;1715542;82;21148;-85
2022/12/26 04:51:43;;;;;;;55.03;25.85;;;;;;;5.38;93.10;101555.37;1740583;81;20939;-84
2022/12/26 04:54:09;;;;;;;54.63;26.55;;;;;;;5.43;92.99;101558.32;1753129;80;21038;-84
2022/12/26 04:56:36;;;;;;;49.38;25.48;;;;;;;5.45;92.76;101556.09;1738238;80;20908;-85
2022/12/26 04:59:03;;;;;;;50.75;26.17;;;;;;;5.43;92.62;101557.88;1748433;80;21141;-86
2022/12/26 05:09:51;;;;;;;41.48;21.57;;;;;;;5.34;92.82;101571.09;1738852;80;21047;-86
2022/12/26 05:12:18;;;;;;;46.05;23.07;;;;;;;5.30;92.70;101567.70;1746275;80;21101;-87
2022/12/26 05:14:45;;;;;;;42.95;23.05;;;;;;;5.28;92.55;101565.57;1754733;80;20896;-85
2022/12/26 05:31:03;;;;;;;32.60;18.92;;;;;;;5.39;93.47;101585.69;1752116;80;21037;-83
2022/12/26 05:36:18;;;;;;;32.93;20.32;;;;;;;5.58;93.31;101582.65;1751451;80;21130;-86
2022/12/26 05:38:45;;;;;;;32.67;18.25;;;;;;;5.63;92.77;101587.31;1745562;80;21132;-85
2022/12/26 05:41:11;;;;;;;33.13;20.00;;;;;;;5.64;92.51;101590.77;1744403;80;21080;-84
2022/12/26 05:43:38;;;;;;;31.87;17.45;;;;;;;5.64;92.11;101596.82;1743704;80;20991;-85
2022/12/26 05:46:04;;;;;;;30.43;17.37;;;;;;;5.64;92.03;101596.82;1741613;80;20982;-84
2022/12/26 05:48:32;;;;;;;33.67;17.30;;;;;;;5.64;91.92;101607.23;1746280;80;20995;-85
2022/12/26 05:51:01;;;;;;;34.38;18.85;;;;;;;5.68;91.98;101613.23;1739275;80;21119;-83
2022/12/26 05:53:28;;;;;;;31.15;18.77;;;;;;;5.72;92.12;101616.17;1716464;82;21397;-86
2022/12/26 05:55:57;;;;;;;31.00;17.40;;;;;;;5.76;92.02;101619.12;1697830;82;21096;-85
2022/12/26 05:58:24;;;;;;;26.37;16.40;;;;;;;5.79;91.92;101622.48;1678707;82;21457;-85
2022/12/26 06:00:51;;;;;;;30.43;17.67;;;;;;;5.84;91.58;101628.03;1711829;82;21026;-85
2022/12/26 06:03:17;;;;;;;28.25;16.37;;;;;;;5.86;91.28;101634.91;1714360;82;21153;-84
2022/12/26 06:05:44;;;;;;;24.35;16.05;;;;;;;5.84;90.90;101634.08;1694768;83;21152;-84
2022/12/26 06:08:11;;;;;;;24.47;14.87;;;;;;;5.84;90.99;101646.25;1695168;84;20971;-84
2022/12/26 06:10:37;;;;;;;22.95;14.53;;;;;;;5.84;91.03;101644.95;1708067;82;21047;-84
2022/12/26 06:13:04;;;;;;;23.45;15.03;;;;;;;5.85;91.04;101640.14;1715961;83;20990;-85
2022/12/26 06:15:31;;;;;;;24.10;14.60;;;;;;;5.85;90.93;101641.02;1702332;82;21683;-86
2022/12/26 06:17:58;;;;;;;24.02;15.75;;;;;;;5.86;91.08;101643.16;1748824;80;21441;-85
2022/12/26 06:20:25;;;;;;;24.07;15.20;;;;;;;5.86;91.12;101649.67;1715376;82;20892;-85
2022/12/26 06:22:52;;;;;;;21.80;14.13;;;;;;;5.88;91.07;101647.89;1702198;83;20925;-85
2022/12/26 06:25:18;;;;;;;21.80;15.05;;;;;;;5.86;90.62;101648.38;1732906;80;20998;-85
2022/12/26 06:27:45;;;;;;;20.97;15.32;;;;;;;5.81;90.40;101645.88;1750676;80;21377;-86
2022/12/26 06:30:12;;;;;;;23.52;14.58;;;;;;;5.77;90.51;101648.14;1747629;80;20943;-86
2022/12/26 06:32:39;;;;;;;25.95;15.68;;;;;;;5.75;90.61;101648.62;1752428;81;20964;-86
2022/12/26 06:35:06;;;;;;;21.45;13.65;;;;;;;5.73;90.88;101653.85;1748812;80;20901;-86
2022/12/26 06:37:33;;;;;;;22.60;14.95;;;;;;;5.71;90.87;101649.12;1750895;80;20968;-84
2022/12/26 06:39:59;;;;;;;24.63;15.45;;;;;;;5.68;91.01;101647.06;1714404;82;21133;-81
2022/12/26 06:42:26;;;;;;;23.22;14.78;;;;;;;5.68;91.21;101651.81;1716559;82;20927;-83
2022/12/26 06:44:52;;;;;;;22.17;14.63;;;;;;;5.70;91.35;101656.54;1741422;80;21377;-85
2022/12/26 06:47:18;;;;;;;20.50;14.75;;;;;;;5.70;91.21;101655.69;1748777;81;21680;-81
2022/12/26 06:49:45;;;;;;;21.85;13.98;;;;;;;5.65;91.02;101658.40;1747358;80;21492;-87
2022/12/26 06:52:12;;;;;;;19.20;14.00;;;;;;;5.68;91.18;101658.77;1744783;80;21314;-85
2022/12/26 06:54:39;;;;;;;13.20;9.80;;;;;;;5.69;91.17;101664.37;1741716;80;21089;-84
2022/12/26 06:57:06;;;;;;;13.30;10.45;;;;;;;5.66;91.02;101668.36;1747105;80;21037;-85
2022/12/26 06:59:33;;;;;;;10.15;6.03;;;;;;;5.61;91.07;101665.86;1748588;81;21107;-85
2022/12/26 07:01:59;;;;;;;6.20;5.47;;;;;;;5.57;90.83;101672.02;1734694;80;20987;-84
2022/12/26 07:04:26;;;;;;;5.17;4.55;;;;;;;5.48;90.80;101665.72;1716546;81;21162;-86
2022/12/26 07:06:53;;;;;;;4.12;3.58;;;;;;;5.45;90.40;101666.65;1734089;80;21453;-87
2022/12/26 11:15:02;;;;;;;11.33;8.45;;;;;;;3.93;94.32;101718.77;1680886;84;20988;-86
2022/12/26 11:17:32;;;;;;;10.08;8.30;;;;;;;3.93;94.30;101718.34;1673005;84;20925;-86
2022/12/26 11:20:23;;;;;;;11.57;9.13;;;;;;;3.98;94.24;101729.95;1716536;82;21144;-86
2022/12/26 11:22:50;;;;;;;16.48;11.25;;;;;;;4.03;93.75;101721.65;1719270;82;20927;-87
2022/12/26 11:25:26;;;;;;;11.70;9.68;;;;;;;4.07;93.52;101719.43;1719868;82;21016;-86
2022/12/26 11:27:57;;;;;;;9.88;8.23;;;;;;;4.14;93.35;101722.34;1725898;82;21038;-87
2022/12/26 11:30:31;;;;;;;9.68;7.75;;;;;;;4.19;93.00;101719.67;1729437;82;21008;-85
2022/12/26 11:33:27;;;;;;;14.65;10.43;;;;;;;4.23;92.73;101720.05;1720391;82;21091;-86
2022/12/26 11:36:02;;;;;;;10.45;8.23;;;;;;;4.27;92.56;101720.42;1727140;82;20866;-83
2022/12/26 11:38:35;;;;;;;12.88;9.10;;;;;;;4.31;91.88;101723.80;1721980;82;20956;-86
2022/12/26 11:43:50;;;;;;;11.35;8.45;;;;;;;4.33;91.64;101724.19;1668317;85;20941;-84
2022/12/26 11:46:17;;;;;;;13.43;10.03;;;;;;;4.39;91.66;101721.95;1726735;81;21258;-83
2022/12/26 11:48:49;;;;;;;11.08;7.78;;;;;;;4.45;91.33;101721.00;1719848;81;20900;-85
2022/12/26 11:51:33;;;;;;;11.57;9.60;;;;;;;4.46;90.69;101728.75;1721718;81;21176;-83
2022/12/26 11:54:32;;;;;;;13.10;9.63;;;;;;;4.40;90.16;101730.14;1726497;81;20886;-84
2022/12/26 11:57:21;;;;;;;11.50;9.25;;;;;;;4.37;90.21;101731.50;1666490;85;21556;-85
2022/12/26 11:59:50;;;;;;;10.70;8.35;;;;;;;4.40;90.40;101733.19;1673057;85;21225;-83
2022/12/26 12:02:29;;;;;;;14.00;10.18;;;;;;;4.40;90.25;101726.24;1631612;85;21481;-86
2022/12/26 12:05:05;;;;;;;9.73;7.95;;;;;;;4.42;90.34;101729.67;1662824;86;20989;-87
2022/12/26 12:07:57;;;;;;;15.10;9.58;;;;;;;4.43;89.99;101727.96;1660293;85;20975;-85
2022/12/26 12:10:46;;;;;;;11.97;8.80;;;;;;;4.39;89.91;101731.03;1659452;85;21010;-86
2022/12/26 12:13:26;;;;;;;13.00;9.50;;;;;;;4.32;89.76;101725.09;1718274;82;21171;-85
2022/12/26 12:16:32;;;;;;;12.53;9.55;;;;;;;4.35;90.15;101726.33;1718434;82;21037;-86
2022/12/26 12:19:28;;;;;;;10.25;8.75;;;;;;;4.42;90.03;101727.53;1728495;82;20969;-85
2022/12/26 12:22:10;;;;;;;12.05;9.18;;;;;;;4.45;89.86;101724.45;1720344;82;20920;-85
2022/12/26 12:24:57;;;;;;;12.90;9.80;;;;;;;4.48;89.76;101732.63;1716615;82;20978;-85
2022/12/26 12:27:37;;;;;;;12.10;9.90;;;;;;;4.52;89.87;101727.80;1707923;82;21219;-83
2022/12/26 12:30:28;;;;;;;13.90;9.90;;;;;;;4.56;89.72;101732.06;1720415;82;21468;-86
2022/12/26 12:33:21;;;;;;;12.90;9.30;;;;;;;4.60;89.23;101737.59;1688932;82;21011;-86
2022/12/26 12:36:08;;;;;;;12.82;9.63;;;;;;;4.56;88.55;101735.52;1720329;82;21543;-85
2022/12/26 12:39:00;;;;;;;18.90;14.68;;;;;;;4.55;88.70;101731.19;1723165;82;21009;-85
2022/12/26 12:41:56;;;;;;;48.15;18.95;;;;;;;4.52;88.63;101735.59;1727053;82;21255;-84
2022/12/26 12:44:39;;;;;;;15.85;11.00;;;;;;;4.50;88.73;101730.41;1691445;83;21005;-87
2022/12/26 12:47:48;;;;;;;13.85;11.25;;;;;;;4.49;88.32;101743.00;1720128;82;21024;-85
2022/12/26 12:50:31;;;;;;;15.68;10.98;;;;;;;4.38;88.52;101744.92;1721428;82;20947;-87
2022/12/26 12:53:57;;;;;;;18.27;15.08;;;;;;;4.31;88.74;101749.77;1719276;82;21402;-87
2022/12/26 12:56:50;;;;;;;22.98;16.62;;;;;;;4.22;88.71;101753.81;1698124;82;21204;-86
2022/12/26 12:59:49;;;;;;;16.73;12.78;;;;;;;4.15;89.14;101746.11;1651159;86;20978;-85
2022/12/26 13:02:29;;;;;;;20.77;12.63;;;;;;;4.10;89.23;101750.97;1701050;84;21000;-87
2022/12/26 13:05:13;;;;;;;18.57;14.15;;;;;;;4.09;89.69;101751.41;1706876;84;21036;-86
2022/12/26 13:07:44;;;;;;;17.62;13.20;;;;;;;4.10;89.99;101753.12;1675685;83;21123;-86
2022/12/26 13:11:08;;;;;;;17.70;12.85;;;;;;;4.15;90.08;101755.19;1703661;83;21828;-86
2022/12/26 13:13:50;;;;;;;18.42;13.18;;;;;;;4.17;90.00;101759.52;1651935;85;20998;-88
2022/12/26 13:16:51;;;;;;;21.07;12.90;;;;;;;4.11;89.90;101750.95;1658973;84;21453;-86
2022/12/26 13:19:25;;;;;;;18.32;13.13;;;;;;;4.11;89.93;101749.66;1659534;85;21511;-86
2022/12/26 13:21:58;;;;;;;21.35;14.98;;;;;;;4.12;89.90;101752.66;1659255;86;20937;-86
2022/12/26 13:24:39;;;;;;;15.95;12.07;;;;;;;4.12;89.78;101754.41;1651269;84;21152;-84
2022/12/26 13:27:19;;;;;;;23.22;15.75;;;;;;;4.08;89.99;101757.47;1661414;85;20959;-88
2022/12/26 13:29:47;;;;;;;35.23;22.10;;;;;;;4.10;90.18;101762.20;1653316;85;20925;-86
2022/12/26 13:32:28;;;;;;;38.85;22.85;;;;;;;4.13;90.27;101766.03;1653952;85;21035;-86
2022/12/26 13:34:57;;;;;;;33.35;21.73;;;;;;;4.16;90.41;101765.16;1646432;85;20975;-86
2022/12/26 13:37:38;;;;;;;35.95;26.35;;;;;;;4.18;90.43;101767.72;1705021;83;21313;-86
2022/12/26 13:40:15;;;;;;;35.25;25.70;;;;;;;4.22;90.53;101769.39;1696860;82;21049;-84
2022/12/26 13:45:55;;;;;;;19.48;14.13;;;;;;;4.18;89.97;101767.30;1687862;82;21020;-86
2022/12/26 13:48:33;;;;;;;21.93;13.70;;;;;;;4.11;89.83;101762.64;1709953;82;20952;-84
2022/12/26 13:51:02;;;;;;;17.80;11.53;;;;;;;4.10;90.10;101773.03;1701256;82;21388;-87
2022/12/26 13:53:36;;;;;;;19.87;14.28;;;;;;;4.10;90.08;101779.08;1696409;83;20902;-85
2022/12/26 13:56:23;;;;;;;54.13;27.55;;;;;;;4.11;90.25;101779.52;1694555;82;28362;-87
2022/12/26 13:59:01;;;;;;;28.92;17.42;;;;;;;4.12;90.14;101776.02;1695247;82;20995;-86
2022/12/26 14:01:48;;;;;;;25.80;16.10;;;;;;;4.09;90.30;101779.97;1695829;83;20936;-87
2022/12/26 14:04:38;;;;;;;25.20;20.05;;;;;;;4.08;90.52;101783.43;1699809;83;21432;-86
2022/12/26 14:07:29;;;;;;;20.82;14.47;;;;;;;4.12;90.56;101784.25;1696272;82;20943;-87
2022/12/26 14:10:13;;;;;;;22.07;16.27;;;;;;;4.14;90.63;101775.56;1692515;82;20951;-86
2022/12/26 14:13:06;;;;;;;23.98;18.87;;;;;;;4.20;90.49;101776.34;1685091;82;20997;-87
2022/12/26 14:15:42;;;;;;;17.57;12.98;;;;;;;4.18;89.92;101777.69;1695842;82;20946;-86
2022/12/26 14:18:17;;;;;;;15.98;11.30;;;;;;;4.18;90.02;101780.69;1699108;82;21523;-88
2022/12/26 14:21:20;;;;;;;17.57;14.87;;;;;;;4.20;90.10;101782.37;1695656;83;21009;-88
2022/12/26 14:24:19;;;;;;;17.10;13.08;;;;;;;4.20;89.97;101773.74;1697264;78;21027;-84
2022/12/26 14:27:14;;;;;;;15.85;11.88;;;;;;;4.22;90.15;101781.07;1695323;82;20944;-86
2022/12/26 14:30:07;;;;;;;15.78;10.90;;;;;;;4.24;89.86;101776.72;1689190;82;20976;-87
2022/12/26 14:32:56;;;;;;;14.55;10.08;;;;;;;4.19;89.57;101769.45;1690935;82;21749;-87
2022/12/26 14:35:53;;;;;;;14.30;10.60;;;;;;;4.12;89.54;101766.94;1693749;82;20959;-85
2022/12/26 14:38:39;;;;;;;13.20;9.58;;;;;;;4.11;89.56;101761.34;1703774;78;21083;-85
2022/12/26 14:43:09;;;;;;;15.53;10.50;;;;;;;4.06;89.46;101759.67;1696811;83;21046;-86
2022/12/26 14:43:42;;;;;;;11.40;9.18;;;;;;;4.01;89.60;101764.94;1696649;82;21011;-87
2022/12/26 14:46:37;;;;;;;15.05;11.45;;;;;;;4.02;89.95;101759.30;1707719;82;21735;-86
2022/12/26 14:49:35;;;;;;;12.35;10.13;;;;;;;3.99;89.86;101761.95;1681370;83;20967;-85
2022/12/26 14:52:26;;;;;;;17.32;10.82;;;;;;;4.02;90.35;101749.77;1690750;83;20980;-85
2022/12/26 14:54:54;;;;;;;18.80;13.22;;;;;;;4.01;89.78;101751.95;1699782;82;20971;-85
2022/12/26 14:57:45;;;;;;;17.15;12.35;;;;;;;3.94;89.77;101753.78;1704582;82;21019;-86
2022/12/26 15:00:23;;;;;;;18.20;13.20;;;;;;;3.92;89.77;101751.65;1703449;82;21226;-86
2022/12/26 15:03:05;;;;;;;19.60;12.35;;;;;;;3.89;89.82;101765.98;1691820;83;20940;-85
2022/12/26 15:05:39;;;;;;;16.20;11.85;;;;;;;3.83;89.70;101758.72;1686648;83;20941;-86
2022/12/26 15:08:38;;;;;;;18.20;12.53;;;;;;;3.78;90.17;101760.08;1687961;83;20919;-85
2022/12/26 15:11:30;;;;;;;15.35;10.85;;;;;;;3.80;90.35;101760.03;1699311;83;20915;-85
2022/12/26 15:14:25;;;;;;;18.40;12.25;;;;;;;3.80;90.42;101756.14;1706206;82;22001;-86
2022/12/26 15:17:13;;;;;;;17.30;12.82;;;;;;;3.81;90.43;101765.21;1693293;82;20991;-86
2022/12/26 15:19:51;;;;;;;20.45;13.18;;;;;;;3.83;90.58;101759.56;1695146;83;20982;-85
2022/12/26 15:22:57;;;;;;;16.97;12.53;;;;;;;3.91;90.80;101760.33;1697527;82;20919;-86
2022/12/26 15:26:04;;;;;;;20.72;12.63;;;;;;;3.97;90.54;101763.26;1698314;82;20947;-86
2022/12/26 15:28:54;;;;;;;16.02;11.53;;;;;;;4.03;90.37;101763.18;1703079;82;21145;-85
2022/12/26 15:31:35;;;;;;;20.25;13.98;;;;;;;4.03;89.95;101758.44;1697604;82;21606;-85
2022/12/26 15:34:37;;;;;;;20.55;12.30;;;;;;;4.07;90.26;101758.36;1703655;83;21079;-83
2022/12/26 15:40:24;;;;;;;25.55;15.18;;;;;;;4.06;89.59;101769.61;1659552;83;21026;-87
2022/12/26 15:43:33;;;;;;;20.55;14.20;;;;;;;4.10;90.18;101762.20;1669679;83;21221;-86
2022/12/26 15:46:19;;;;;;;26.33;16.77;;;;;;;4.17;89.94;101766.86;1631870;87;21047;-87
2022/12/26 15:49:00;;;;;;;26.68;14.98;;;;;;;4.20;89.64;101768.10;1594855;89;20990;-86
2022/12/26 15:51:47;;;;;;;29.00;16.32;;;;;;;4.21;89.27;101763.80;1620086;87;20980;-85
2022/12/26 15:54:50;;;;;;;25.88;16.02;;;;;;;4.17;88.85;101769.91;1591225;89;21432;-85
2022/12/26 15:57:40;;;;;;;24.02;16.32;;;;;;;4.13;88.96;101772.53;1613715;86;21173;-85
2022/12/26 16:00:14;;;;;;;26.95;17.55;;;;;;;4.11;88.98;101778.21;1597142;88;21094;-85
2022/12/26 16:03:06;;;;;;;23.80;16.82;;;;;;;4.13;89.22;101773.83;1616354;88;20894;-87
2022/12/26 16:05:53;;;;;;;24.20;14.65;;;;;;;4.05;88.80;101774.40;1627548;87;20953;-88
2022/12/26 16:09:00;;;;;;;27.65;15.45;;;;;;;3.97;89.08;101772.34;1630876;87;20927;-85
2022/12/26 16:11:42;;;;;;;25.68;16.10;;;;;;;3.91;89.40;101776.31;1641919;86;21862;-87
2022/12/26 16:14:28;;;;;;;26.37;15.98;;;;;;;3.84;89.43;101785.91;1603663;86;21594;-86
2022/12/26 16:17:10;;;;;;;23.95;15.40;;;;;;;3.81;89.35;101783.38;1670386;83;20864;-87
2022/12/26 16:19:37;;;;;;;26.90;13.83;;;;;;;3.78;89.54;101785.14;1628836;86;21063;-86
2022/12/26 22:09:20;;;;;;;39.92;22.13;;;;;;;3.40;94.43;101656.83;1846571;76;21030;-85
2022/12/26 22:14:35;;;;;;;33.13;18.45;;;;;;;3.57;93.07;101647.53;1851720;76;21160;-86
2022/12/26 22:17:02;;;;;;;28.35;15.65;;;;;;;3.60;92.46;101643.58;1831107;76;20978;-87
2022/12/26 22:19:29;;;;;;;24.10;15.08;;;;;;;3.63;91.96;101631.88;1842065;76;20970;-86
2022/12/26 22:21:55;;;;;;;22.13;13.90;;;;;;;3.65;91.58;101639.20;1794111;78;21030;-86
2022/12/26 22:24:22;;;;;;;22.62;13.38;;;;;;;3.63;91.20;101637.07;1777111;79;21002;-86
2022/12/26 22:26:48;;;;;;;19.70;11.93;;;;;;;3.64;90.96;101625.80;1780093;79;21156;-85
2022/12/26 22:29:15;;;;;;;22.05;12.90;;;;;;;3.63;90.35;101637.92;1793980;78;20973;-86
2022/12/26 22:31:42;;;;;;;23.73;13.25;;;;;;;3.58;89.87;101644.92;1805038;78;20938;-86
2022/12/26 22:34:13;;;;;;;21.20;12.43;;;;;;;3.57;89.63;101641.05;1799420;78;20879;-88
2022/12/26 22:36:40;;;;;;;22.98;12.37;;;;;;;3.53;89.40;101641.10;1813797;78;20922;-85
2022/12/26 22:39:08;;;;;;;26.90;16.37;;;;;;;3.51;89.47;101641.56;1794991;78;21094;-85
2022/12/26 22:41:36;;;;;;;22.77;13.15;;;;;;;3.52;89.66;101639.81;1820485;78;21084;-86
2022/12/26 22:44:03;;;;;;;24.12;14.85;;;;;;;3.55;89.80;101641.05;1803867;78;21018;-85
2022/12/26 22:46:30;;;;;;;21.52;13.38;;;;;;;3.58;89.89;101643.63;1815863;78;21052;-86
2022/12/26 22:48:56;;;;;;;23.73;13.45;;;;;;;3.61;89.75;101643.56;1810189;78;20883;-87
2022/12/26 22:51:24;;;;;;;20.45;12.70;;;;;;;3.63;89.62;101640.96;1799959;78;21218;-86
2022/12/26 22:53:59;;;;;;;21.05;12.30;;;;;;;3.62;89.47;101631.45;1828248;78;20891;-86
2022/12/26 22:56:25;;;;;;;20.70;13.18;;;;;;;3.62;89.31;101647.86;1795591;78;20883;-87
2022/12/26 22:58:59;;;;;;;18.20;12.03;;;;;;;3.61;89.03;101628.01;1798032;78;20907;-87
2022/12/26 23:01:25;;;;;;;21.60;11.38;;;;;;;3.59;89.12;101626.32;1803595;78;20941;-87
2022/12/26 23:03:51;;;;;;;24.63;15.93;;;;;;;3.58;89.33;101633.25;1794106;78;21143;-85
2022/12/26 23:06:22;;;;;;;23.85;15.48;;;;;;;3.62;89.43;101634.05;1804652;78;20899;-86
2022/12/26 23:08:50;;;;;;;23.90;14.73;;;;;;;3.64;89.46;101627.95;1797978;78;20863;-84
2022/12/26 23:11:18;;;;;;;29.50;17.92;;;;;;;3.68;89.55;101631.36;1825782;78;21416;-87
2022/12/26 23:13:46;;;;;;;21.70;14.90;;;;;;;3.72;89.46;101634.34;1816299;78;21364;-85
2022/12/26 23:16:46;;;;;;;24.67;14.75;;;;;;;3.75;89.27;101622.60;1802860;78;21334;-85
2022/12/26 23:22:08;;;;;;;23.62;15.60;;;;;;;3.80;88.89;101632.48;1812475;78;20926;-85
2022/12/26 23:24:35;;;;;;;20.02;12.95;;;;;;;3.84;88.80;101638.47;1803564;78;20926;-86
2022/12/26 23:32:38;;;;;;;18.42;12.13;;;;;;;3.93;88.90;101617.14;1817645;78;20874;-85
2022/12/26 23:35:05;;;;;;;22.42;13.78;;;;;;;3.98;89.05;101629.16;1822036;78;20943;-85
2022/12/26 23:37:32;;;;;;;19.80;12.93;;;;;;;4.00;88.82;101629.55;1810132;78;21161;-85
2022/12/26 23:39:58;;;;;;;16.30;10.55;;;;;;;4.04;88.60;101636.85;1827075;78;20987;-85
2022/12/26 23:42:25;;;;;;;17.37;11.30;;;;;;;4.01;88.30;101631.72;1820733;78;21261;-86
2022/12/26 23:44:51;;;;;;;22.13;11.90;;;;;;;3.98;88.18;101621.38;1828475;78;20963;-86
2022/12/26 23:47:19;;;;;;;19.57;11.68;;;;;;;3.98;88.14;101616.19;1803227;78;20951;-86
2022/12/26 23:49:46;;;;;;;22.05;11.83;;;;;;;3.95;88.12;101613.20;1816223;78;20974;-87
2022/12/26 23:52:12;;;;;;;16.48;11.40;;;;;;;3.95;88.22;101615.34;1827872;78;20966;-85
2022/12/26 23:54:39;;;;;;;19.17;11.30;;;;;;;3.95;88.03;101614.50;1814036;78;21235;-85
2022/12/26 23:57:05;;;;;;;15.70;10.70;;;;;;;3.94;88.09;101621.88;1820700;78;20939;-87
2022/12/26 23:59:32;;;;;;;19.65;12.88;;;;;;;3.93;87.92;101623.63;1811595;78;20997;-85
